Time;durP1;ratioP1;P1;durP2;ratioP2;P2;SDS_P1;SDS_P2;PMS_P1;PMS_P2;Temp;Humidity;BMP_temperature;BMP_pressure;BME280_temperature;BME280_humidity;BME280_pressure;Samples;Min_cycle;Max_cycle;Signal;HPM_P1;HPM_P2
2023/06/28 00:01:08;;;;;;;7.45;3.58;;;17.60;99.90;;;;;;4891784;29;37514;-86
2023/06/28 00:03:34;;;;;;;8.07;3.55;;;17.60;99.90;;;;;;4891753;29;37593;-86
2023/06/28 00:06:00;;;;;;;12.43;4.40;;;17.60;99.90;;;;;;4894293;29;37926;-86
2023/06/28 00:08:26;;;;;;;16.52;5.18;;;17.60;99.90;;;;;;4894277;29;37510;-87
2023/06/28 00:10:55;;;;;;;9.85;4.00;;;17.60;99.90;;;;;;4892003;29;37057;-87
2023/06/28 00:13:21;;;;;;;11.55;4.07;;;17.50;99.90;;;;;;4895516;29;38046;-87
2023/06/28 00:15:48;;;;;;;11.00;4.15;;;17.60;99.90;;;;;;4896961;29;37083;-87
2023/06/28 00:18:21;;;;;;;8.93;3.55;;;17.50;99.90;;;;;;4891932;29;39052;-87
2023/06/28 00:20:47;;;;;;;11.27;4.47;;;17.60;99.90;;;;;;4890116;29;37235;-88
2023/06/28 00:23:14;;;;;;;10.27;4.30;;;17.60;99.90;;;;;;4894015;29;36922;-88
2023/06/28 00:25:41;;;;;;;12.85;4.18;;;17.50;99.90;;;;;;4901489;29;36386;-87
2023/06/28 00:28:07;;;;;;;10.80;4.07;;;17.50;99.90;;;;;;4891615;29;39049;-87
2023/06/28 00:30:33;;;;;;;10.00;3.97;;;17.50;99.90;;;;;;4889542;29;37979;-87
2023/06/28 00:32:59;;;;;;;10.43;4.28;;;17.50;99.90;;;;;;4904082;29;37071;-87
2023/06/28 00:35:26;;;;;;;10.88;4.30;;;17.40;99.90;;;;;;4901267;29;38466;-87
2023/06/28 00:37:56;;;;;;;10.70;4.25;;;17.50;99.90;;;;;;4891835;29;39275;-87
2023/06/28 00:40:22;;;;;;;10.35;3.88;;;17.50;99.90;;;;;;4895768;29;37078;-87
2023/06/28 00:42:48;;;;;;;13.15;4.45;;;17.40;99.90;;;;;;4899972;29;37121;-87
2023/06/28 00:45:14;;;;;;;6.75;3.63;;;17.40;99.90;;;;;;4911347;29;36016;-84
2023/06/28 00:47:42;;;;;;;10.27;3.75;;;17.40;99.90;;;;;;4915219;28;40284;-82
2023/06/28 00:50:09;;;;;;;13.68;4.35;;;17.30;99.90;;;;;;4934491;28;38421;-80
2023/06/28 00:52:36;;;;;;;9.38;4.68;;;17.20;99.90;;;;;;4918551;29;38196;-82
2023/06/28 00:55:03;;;;;;;15.82;5.38;;;17.10;99.90;;;;;;4918911;28;37406;-82
2023/06/28 00:57:29;;;;;;;13.07;5.15;;;17.00;99.90;;;;;;4914224;28;37700;-81
2023/06/28 00:59:57;;;;;;;15.38;5.28;;;16.90;99.90;;;;;;4899179;29;39396;-82
2023/06/28 01:02:24;;;;;;;12.88;5.32;;;16.90;99.90;;;;;;5236459;23;36895;-77
2023/06/28 01:04:53;;;;;;;13.55;5.32;;;17.00;99.90;;;;;;4857527;29;36890;-77
2023/06/28 01:07:20;;;;;;;12.20;4.68;;;17.00;99.90;;;;;;4870974;29;38853;-77
2023/06/28 01:09:46;;;;;;;13.57;5.45;;;16.90;99.90;;;;;;4870789;29;38081;-76
2023/06/28 01:12:13;;;;;;;16.23;5.18;;;16.90;99.90;;;;;;4871789;29;38167;-77
2023/06/28 01:14:39;;;;;;;14.93;5.05;;;16.90;99.90;;;;;;4882935;29;36307;-77
2023/06/28 01:17:05;;;;;;;14.35;5.15;;;16.90;99.90;;;;;;4885386;29;37773;-78
2023/06/28 01:19:32;;;;;;;13.77;5.30;;;16.80;99.90;;;;;;4870554;29;38554;-78
2023/06/28 01:22:02;;;;;;;12.02;4.72;;;16.90;99.90;;;;;;4868668;29;37240;-77
2023/06/28 01:24:28;;;;;;;9.00;4.68;;;16.90;99.90;;;;;;4883290;29;47437;-78
2023/06/28 01:26:58;;;;;;;15.45;4.93;;;16.90;99.90;;;;;;4869736;29;39008;-78
2023/06/28 01:29:25;;;;;;;10.63;5.38;;;16.90;99.90;;;;;;4871722;29;38622;-76
2023/06/28 01:31:56;;;;;;;16.40;6.38;;;16.90;99.90;;;;;;4869629;29;38872;-76
2023/06/28 01:34:22;;;;;;;13.18;6.07;;;16.90;99.90;;;;;;4884534;29;37474;-77
2023/06/28 01:36:50;;;;;;;11.77;5.55;;;17.00;99.90;;;;;;4871046;29;37638;-77
2023/06/28 01:39:20;;;;;;;13.65;5.93;;;17.00;99.90;;;;;;4869119;29;37164;-77
2023/06/28 01:41:48;;;;;;;13.30;5.55;;;17.00;99.90;;;;;;4866768;29;36965;-78
2023/06/28 01:44:14;;;;;;;10.50;5.53;;;17.00;99.90;;;;;;4869055;29;35998;-78
2023/06/28 01:46:41;;;;;;;11.32;5.07;;;17.00;99.90;;;;;;4873708;29;38904;-78
2023/06/28 01:49:07;;;;;;;13.98;5.60;;;17.10;99.90;;;;;;4888317;29;37319;-78
2023/06/28 01:51:35;;;;;;;18.35;6.35;;;17.00;99.90;;;;;;4870976;29;38878;-78
2023/06/28 01:54:02;;;;;;;20.30;5.65;;;17.00;99.90;;;;;;4868705;29;39076;-77
2023/06/28 01:56:28;;;;;;;11.27;5.88;;;17.10;99.90;;;;;;4870189;29;47162;-79
2023/06/28 01:58:54;;;;;;;14.88;6.15;;;17.10;99.90;;;;;;4869669;29;38735;-79
2023/06/28 02:01:21;;;;;;;15.80;6.65;;;17.10;99.90;;;;;;4871922;29;36856;-80
2023/06/28 02:03:47;;;;;;;23.83;6.40;;;17.10;99.90;;;;;;4874785;29;38100;-78
2023/06/28 02:06:14;;;;;;;10.73;5.75;;;17.10;99.90;;;;;;4873435;29;38598;-79
2023/06/28 02:08:40;;;;;;;14.15;5.85;;;17.10;99.90;;;;;;4872584;29;38571;-78
2023/06/28 02:11:07;;;;;;;15.90;6.68;;;17.10;99.90;;;;;;4871052;29;37044;-80
2023/06/28 02:13:33;;;;;;;10.75;5.78;;;17.10;99.90;;;;;;4871974;29;36308;-78
2023/06/28 02:16:01;;;;;;;18.58;6.03;;;17.10;99.90;;;;;;4886773;29;39107;-79
2023/06/28 02:18:28;;;;;;;13.82;5.95;;;17.10;99.90;;;;;;4875461;29;47622;-78
2023/06/28 02:20:54;;;;;;;14.00;6.22;;;17.10;99.90;;;;;;4873479;29;37077;-78
2023/06/28 02:23:20;;;;;;;10.75;5.38;;;17.10;99.90;;;;;;4869062;29;37017;-77
2023/06/28 02:25:47;;;;;;;18.10;6.03;;;17.10;99.90;;;;;;4872695;29;38934;-77
2023/06/28 02:28:13;;;;;;;16.92;5.93;;;17.10;99.90;;;;;;4886315;29;38530;-77
2023/06/28 02:30:39;;;;;;;20.40;6.32;;;17.00;99.90;;;;;;4872089;29;38955;-76
2023/06/28 02:33:05;;;;;;;13.05;6.63;;;17.10;99.90;;;;;;4870136;29;36121;-76
2023/06/28 02:35:32;;;;;;;13.68;6.30;;;17.10;99.90;;;;;;4877130;29;37844;-77
2023/06/28 02:37:58;;;;;;;15.25;7.82;;;17.00;99.90;;;;;;4873602;29;37996;-76
2023/06/28 02:40:27;;;;;;;12.02;5.82;;;17.00;99.90;;;;;;4864717;29;39183;-76
2023/06/28 02:42:53;;;;;;;16.73;6.88;;;17.00;99.90;;;;;;4865538;29;36722;-76
2023/06/28 02:45:19;;;;;;;16.20;6.85;;;17.00;99.90;;;;;;4871394;29;38706;-76
2023/06/28 02:47:45;;;;;;;12.35;6.55;;;17.00;99.90;;;;;;4868955;29;38440;-76
2023/06/28 02:50:12;;;;;;;16.98;7.82;;;17.00;99.90;;;;;;4874585;29;36790;-76
2023/06/28 02:52:38;;;;;;;12.13;6.15;;;17.00;99.90;;;;;;4871237;29;37768;-76
2023/06/28 02:55:07;;;;;;;13.73;7.30;;;17.00;99.90;;;;;;4867594;29;39374;-78
2023/06/28 02:57:33;;;;;;;15.18;7.32;;;17.10;99.90;;;;;;4870018;29;39321;-76
2023/06/28 02:59:59;;;;;;;19.67;8.00;;;17.00;99.90;;;;;;4871049;29;38324;-76
2023/06/28 03:02:25;;;;;;;17.83;7.53;;;17.00;99.90;;;;;;4885274;29;38114;-76
2023/06/28 03:04:51;;;;;;;13.65;7.28;;;16.90;99.90;;;;;;4870993;29;38093;-76
2023/06/28 03:07:18;;;;;;;13.77;6.72;;;17.00;99.90;;;;;;4887779;29;38439;-76
2023/06/28 03:09:44;;;;;;;19.48;7.22;;;17.00;99.90;;;;;;4868273;29;36983;-76
2023/06/28 03:12:11;;;;;;;13.77;7.22;;;16.90;99.90;;;;;;4883405;29;36289;-77
2023/06/28 03:14:37;;;;;;;16.73;6.57;;;16.90;99.90;;;;;;4870676;29;39012;-76
2023/06/28 03:17:05;;;;;;;12.68;6.43;;;16.90;99.90;;;;;;4870678;29;39267;-76
2023/06/28 03:19:31;;;;;;;8.88;5.93;;;16.90;99.90;;;;;;4880946;29;37010;-77
2023/06/28 03:21:57;;;;;;;10.30;5.35;;;16.80;99.90;;;;;;4869138;29;37425;-76
2023/06/28 03:24:23;;;;;;;12.88;5.95;;;16.80;99.90;;;;;;4868695;29;38989;-77
2023/06/28 03:26:49;;;;;;;14.55;6.35;;;16.80;99.90;;;;;;4871951;29;37320;-77
2023/06/28 03:29:15;;;;;;;18.17;6.88;;;16.80;99.90;;;;;;4870674;29;36884;-77
2023/06/28 03:31:42;;;;;;;14.27;6.50;;;16.80;99.90;;;;;;4871945;29;37217;-77
2023/06/28 03:34:08;;;;;;;11.18;5.93;;;16.80;99.90;;;;;;4870142;29;38668;-77
2023/06/28 03:36:34;;;;;;;12.85;6.63;;;16.80;99.90;;;;;;4886818;29;37313;-77
2023/06/28 03:39:00;;;;;;;13.30;7.35;;;16.70;99.90;;;;;;4886636;29;37064;-77
2023/06/28 03:41:27;;;;;;;15.52;6.53;;;16.80;99.90;;;;;;4869317;29;36557;-76
2023/06/28 03:43:54;;;;;;;14.20;8.45;;;16.80;99.90;;;;;;4872102;29;40101;-78
2023/06/28 03:46:20;;;;;;;17.30;7.47;;;16.70;99.90;;;;;;4868368;29;38631;-77
2023/06/28 03:48:46;;;;;;;16.20;7.68;;;16.70;99.90;;;;;;4863147;29;37331;-77
2023/06/28 03:51:13;;;;;;;14.52;8.02;;;16.60;99.90;;;;;;4870951;29;20105;-77
2023/06/28 03:53:39;;;;;;;13.48;7.18;;;16.70;99.90;;;;;;4885670;29;38871;-77
2023/06/28 03:56:05;;;;;;;15.35;8.18;;;16.70;99.90;;;;;;4880334;29;38070;-78
2023/06/28 03:58:32;;;;;;;22.45;8.73;;;16.80;99.90;;;;;;4875534;29;37604;-77
2023/06/28 04:01:02;;;;;;;19.50;8.23;;;16.70;99.90;;;;;;4869305;29;37610;-77
2023/06/28 04:03:28;;;;;;;19.83;7.85;;;16.70;99.90;;;;;;4887391;29;47218;-78
2023/06/28 04:05:54;;;;;;;18.13;8.43;;;16.70;99.90;;;;;;4883071;29;37585;-78
2023/06/28 04:08:20;;;;;;;16.95;8.25;;;16.70;99.90;;;;;;4871753;29;37888;-77
2023/06/28 04:10:46;;;;;;;15.43;8.25;;;16.70;99.90;;;;;;4870791;29;37608;-78
2023/06/28 04:13:12;;;;;;;15.45;8.60;;;16.70;99.90;;;;;;4874379;29;37570;-77
2023/06/28 04:15:39;;;;;;;17.83;7.95;;;16.70;99.90;;;;;;4869778;29;37117;-78
2023/06/28 04:18:05;;;;;;;18.00;8.20;;;16.70;99.90;;;;;;4865543;29;39636;-77
2023/06/28 04:20:31;;;;;;;14.80;8.27;;;16.60;99.90;;;;;;4868049;29;37380;-78
2023/06/28 04:22:57;;;;;;;18.13;8.52;;;16.70;99.90;;;;;;4869355;29;40521;-79
2023/06/28 04:25:23;;;;;;;17.98;8.10;;;16.70;99.90;;;;;;4868933;29;38851;-78
2023/06/28 04:27:49;;;;;;;17.85;7.82;;;16.70;99.90;;;;;;4872303;29;38107;-77
2023/06/28 04:30:15;;;;;;;25.13;8.52;;;16.60;99.90;;;;;;4883781;29;36793;-77
2023/06/28 04:32:44;;;;;;;17.80;7.88;;;16.70;99.90;;;;;;4870240;29;37761;-76
2023/06/28 04:35:11;;;;;;;18.00;7.93;;;16.70;99.90;;;;;;4867908;29;38956;-76
2023/06/28 04:37:38;;;;;;;14.57;7.70;;;16.70;99.90;;;;;;4871339;29;38073;-77
2023/06/28 04:40:05;;;;;;;19.05;7.95;;;16.80;99.90;;;;;;4883160;29;35100;-78
2023/06/28 04:42:31;;;;;;;20.23;7.47;;;16.80;99.90;;;;;;4872172;29;39545;-76
2023/06/28 04:45:00;;;;;;;20.10;7.55;;;16.80;99.90;;;;;;4883716;29;37527;-78
2023/06/28 04:47:27;;;;;;;17.02;6.50;;;16.80;99.90;;;;;;4869036;29;38226;-77
2023/06/28 04:49:54;;;;;;;15.80;7.28;;;16.80;99.90;;;;;;4867826;29;37506;-76
2023/06/28 04:52:21;;;;;;;15.73;7.25;;;16.80;99.90;;;;;;4880466;29;37632;-76
2023/06/28 04:54:48;;;;;;;19.52;8.23;;;16.80;99.90;;;;;;4871746;29;37598;-77
2023/06/28 04:57:15;;;;;;;16.20;6.75;;;16.90;99.90;;;;;;4864580;29;37182;-76
2023/06/28 04:59:42;;;;;;;15.27;7.53;;;16.90;99.90;;;;;;4867127;29;37152;-76
2023/06/28 05:02:09;;;;;;;15.32;7.43;;;16.90;99.90;;;;;;4863079;29;38678;-77
2023/06/28 05:04:37;;;;;;;14.13;7.07;;;16.90;99.90;;;;;;4867431;29;38404;-78
2023/06/28 05:07:05;;;;;;;16.10;7.28;;;16.90;99.90;;;;;;4863705;29;37242;-78
2023/06/28 05:09:33;;;;;;;13.85;7.32;;;16.90;99.90;;;;;;4880241;29;37963;-83
2023/06/28 05:11:59;;;;;;;15.70;7.57;;;17.00;99.90;;;;;;4865378;29;37872;-81
2023/06/28 05:14:26;;;;;;;13.93;7.25;;;16.90;99.90;;;;;;4865202;29;37115;-79
2023/06/28 05:16:52;;;;;;;17.38;6.97;;;16.90;99.90;;;;;;4870966;29;38260;-80
2023/06/28 05:19:19;;;;;;;14.25;6.57;;;17.00;99.90;;;;;;4871700;29;37274;-79
2023/06/28 05:21:45;;;;;;;10.63;6.32;;;17.00;99.90;;;;;;4867397;29;38825;-79
2023/06/28 05:24:11;;;;;;;14.13;6.97;;;17.10;99.90;;;;;;4864665;29;38559;-83
2023/06/28 05:26:37;;;;;;;19.10;7.10;;;17.10;99.90;;;;;;4866269;29;37039;-79
2023/06/28 05:29:03;;;;;;;14.20;6.53;;;17.10;99.90;;;;;;4863715;29;37029;-81
2023/06/28 05:31:29;;;;;;;16.95;6.75;;;17.10;99.90;;;;;;4865771;29;38453;-80
2023/06/28 05:33:55;;;;;;;17.65;7.20;;;17.00;99.90;;;;;;4867912;29;37126;-79
2023/06/28 05:36:22;;;;;;;15.85;6.85;;;17.00;99.90;;;;;;4871986;29;39416;-78
2023/06/28 05:38:48;;;;;;;13.40;6.30;;;17.00;99.90;;;;;;4866784;29;36305;-79
2023/06/28 05:41:16;;;;;;;16.60;6.38;;;17.10;99.90;;;;;;4868821;29;39549;-80
2023/06/28 05:43:43;;;;;;;15.85;6.47;;;17.00;99.90;;;;;;4871050;29;38542;-77
2023/06/28 05:46:09;;;;;;;13.85;6.03;;;17.10;99.90;;;;;;4883715;29;37183;-80
2023/06/28 05:48:35;;;;;;;11.38;6.70;;;17.10;99.90;;;;;;4864647;29;37065;-81
2023/06/28 05:51:02;;;;;;;11.27;6.07;;;17.10;99.90;;;;;;4864560;29;39230;-81
2023/06/28 05:53:29;;;;;;;11.45;6.32;;;17.00;99.90;;;;;;4869177;29;47199;-81
2023/06/28 05:55:56;;;;;;;14.70;6.55;;;17.10;99.90;;;;;;4872337;29;37179;-80
2023/06/28 05:58:22;;;;;;;16.80;7.00;;;17.00;99.90;;;;;;4878923;29;38070;-79
2023/06/28 06:00:48;;;;;;;18.58;6.57;;;17.10;99.90;;;;;;4870947;29;39145;-79
2023/06/28 06:03:14;;;;;;;16.13;6.38;;;17.10;99.90;;;;;;4858758;29;37172;-79
2023/06/28 06:05:40;;;;;;;13.40;6.25;;;17.10;99.90;;;;;;4851395;29;37696;-79
2023/06/28 06:08:06;;;;;;;14.65;5.80;;;17.10;99.90;;;;;;4855447;29;37616;-77
2023/06/28 06:10:32;;;;;;;18.45;7.03;;;17.10;99.90;;;;;;4858437;29;38090;-77
2023/06/28 06:12:59;;;;;;;19.33;6.30;;;17.10;99.90;;;;;;4873253;29;38315;-77
2023/06/28 06:15:25;;;;;;;16.50;6.57;;;17.10;99.90;;;;;;4860706;29;37194;-78
2023/06/28 06:17:51;;;;;;;14.65;6.15;;;17.20;99.90;;;;;;4861111;29;36749;-77
2023/06/28 06:20:17;;;;;;;12.40;6.28;;;17.20;99.90;;;;;;4857849;29;38927;-77
2023/06/28 06:22:44;;;;;;;15.45;6.30;;;17.20;99.90;;;;;;4859633;29;38264;-77
2023/06/28 06:25:10;;;;;;;17.10;6.40;;;17.20;99.90;;;;;;4860120;29;37864;-77
2023/06/28 06:27:37;;;;;;;15.02;6.25;;;17.20;99.90;;;;;;4861884;29;36908;-77
2023/06/28 06:30:03;;;;;;;10.25;5.05;;;17.30;99.90;;;;;;4877507;29;37636;-78
2023/06/28 06:32:30;;;;;;;22.65;6.20;;;17.30;99.90;;;;;;4858903;29;36780;-79
2023/06/28 06:35:00;;;;;;;14.05;6.07;;;17.40;99.90;;;;;;4858512;29;38660;-78
2023/06/28 06:37:27;;;;;;;12.68;5.93;;;17.40;99.90;;;;;;4856675;29;37367;-79
2023/06/28 06:39:54;;;;;;;16.73;5.65;;;17.40;99.90;;;;;;4853335;29;37806;-78
2023/06/28 06:42:20;;;;;;;10.48;5.45;;;17.40;99.90;;;;;;4853210;29;38619;-78
2023/06/28 06:44:46;;;;;;;14.18;6.38;;;17.40;99.90;;;;;;4857430;29;36878;-77
2023/06/28 06:47:12;;;;;;;16.23;6.38;;;17.50;99.90;;;;;;4861257;29;36535;-79
2023/06/28 06:49:38;;;;;;;19.88;6.30;;;17.50;99.90;;;;;;4873061;29;39064;-78
2023/06/28 06:52:05;;;;;;;12.48;6.32;;;17.60;99.90;;;;;;4859073;29;37145;-79
2023/06/28 06:54:31;;;;;;;14.00;6.00;;;17.60;99.90;;;;;;4874945;29;37331;-78
2023/06/28 06:57:02;;;;;;;18.92;7.57;;;17.70;99.90;;;;;;4856328;29;37359;-79
2023/06/28 06:59:28;;;;;;;14.45;6.13;;;17.70;99.90;;;;;;4855234;29;46930;-80
2023/06/28 07:01:54;;;;;;;8.07;5.85;;;17.80;99.90;;;;;;4864818;29;38203;-78
2023/06/28 07:04:23;;;;;;;16.67;7.43;;;17.70;99.90;;;;;;4856121;29;39114;-79
2023/06/28 07:06:50;;;;;;;10.90;6.45;;;17.80;99.90;;;;;;4857460;29;36605;-78
2023/06/28 07:09:17;;;;;;;16.02;6.47;;;17.90;99.90;;;;;;4862217;29;38819;-78
2023/06/28 07:11:44;;;;;;;12.48;6.72;;;17.90;99.90;;;;;;4858307;29;37324;-79
2023/06/28 07:14:11;;;;;;;18.05;7.32;;;17.90;99.90;;;;;;4859908;29;37579;-79
2023/06/28 07:16:37;;;;;;;13.32;6.88;;;17.90;99.90;;;;;;4857773;29;37772;-79
2023/06/28 07:19:05;;;;;;;14.45;7.28;;;18.00;99.90;;;;;;4874904;29;37233;-78
2023/06/28 07:21:31;;;;;;;19.42;7.88;;;18.10;99.90;;;;;;4870634;29;38145;-77
2023/06/28 07:23:58;;;;;;;11.68;7.13;;;18.20;99.90;;;;;;4859126;29;36965;-79
2023/06/28 07:26:24;;;;;;;13.20;7.57;;;18.20;99.90;;;;;;4858034;29;36125;-77
2023/06/28 07:28:50;;;;;;;18.40;7.65;;;18.30;99.90;;;;;;4855587;29;37789;-77
2023/06/28 07:31:16;;;;;;;18.85;8.07;;;18.40;99.90;;;;;;4870708;29;38180;-76
2023/06/28 07:33:43;;;;;;;12.85;7.47;;;18.40;99.90;;;;;;4869505;29;36724;-77
2023/06/28 07:36:09;;;;;;;15.60;8.20;;;18.50;99.90;;;;;;4860048;29;36239;-75
2023/06/28 07:38:35;;;;;;;20.08;8.23;;;18.50;99.90;;;;;;4852511;29;40043;-77
2023/06/28 07:41:01;;;;;;;14.65;7.20;;;18.50;99.90;;;;;;4855049;29;39822;-77
2023/06/28 07:43:28;;;;;;;11.23;7.00;;;18.60;99.90;;;;;;4856939;29;47831;-79
2023/06/28 07:45:58;;;;;;;11.75;7.65;;;18.60;99.90;;;;;;4859205;29;36665;-78
2023/06/28 07:48:27;;;;;;;21.60;8.60;;;18.80;99.90;;;;;;4855467;29;38157;-78
2023/06/28 07:50:54;;;;;;;15.27;8.85;;;18.80;99.90;;;;;;4856575;29;38225;-78
2023/06/28 07:53:20;;;;;;;18.63;9.60;;;18.90;99.90;;;;;;4857573;29;38097;-80
2023/06/28 07:55:46;;;;;;;17.45;9.38;;;19.00;99.90;;;;;;4860852;29;36094;-79
2023/06/28 07:58:12;;;;;;;20.48;9.70;;;19.00;99.90;;;;;;4861158;29;37792;-79
2023/06/28 08:00:39;;;;;;;18.38;9.75;;;19.10;99.90;;;;;;4857467;29;37634;-79
2023/06/28 08:03:05;;;;;;;17.90;9.65;;;19.10;99.90;;;;;;4860880;29;38585;-77
2023/06/28 08:05:31;;;;;;;19.48;9.48;;;19.30;99.90;;;;;;4872735;29;36501;-79
2023/06/28 08:07:57;;;;;;;16.30;8.73;;;19.50;99.90;;;;;;4856512;29;37473;-79
2023/06/28 08:10:24;;;;;;;22.92;9.30;;;19.60;99.90;;;;;;4871990;29;37292;-78
2023/06/28 08:12:51;;;;;;;16.13;9.60;;;19.70;99.90;;;;;;4858393;29;38543;-80
2023/06/28 08:15:18;;;;;;;20.48;8.85;;;19.70;99.90;;;;;;4854877;29;36155;-79
2023/06/28 08:17:46;;;;;;;18.88;9.60;;;19.80;99.90;;;;;;4871791;29;37881;-79
2023/06/28 08:20:12;;;;;;;18.17;9.18;;;19.80;99.90;;;;;;4854860;29;37741;-78
2023/06/28 08:22:38;;;;;;;20.33;11.02;;;19.90;99.90;;;;;;4866084;29;38521;-77
2023/06/28 08:25:04;;;;;;;15.40;9.20;;;20.10;99.90;;;;;;4855259;29;37287;-76
2023/06/28 08:27:31;;;;;;;22.58;10.15;;;20.10;99.90;;;;;;4855079;29;46677;-78
2023/06/28 08:29:58;;;;;;;13.45;9.30;;;20.20;99.90;;;;;;4859411;29;37353;-79
2023/06/28 08:32:24;;;;;;;18.75;10.68;;;20.40;99.90;;;;;;4853917;29;37418;-78
2023/06/28 08:34:50;;;;;;;20.83;10.40;;;20.70;99.90;;;;;;4856116;29;36701;-74
2023/06/28 08:37:17;;;;;;;17.63;10.80;;;20.60;99.90;;;;;;4851801;29;37636;-76
2023/06/28 08:39:43;;;;;;;16.00;10.40;;;20.40;99.90;;;;;;4870353;29;37914;-79
2023/06/28 08:42:10;;;;;;;18.30;10.52;;;20.50;99.90;;;;;;4852657;29;37139;-77
2023/06/28 08:44:38;;;;;;;22.10;10.55;;;20.70;99.90;;;;;;4848244;29;36891;-77
2023/06/28 08:47:06;;;;;;;23.05;11.88;;;20.60;99.90;;;;;;4854908;29;40453;-78
2023/06/28 08:49:32;;;;;;;22.27;11.27;;;20.60;99.90;;;;;;4856915;29;38648;-79
2023/06/28 08:51:59;;;;;;;16.33;11.43;;;20.50;99.90;;;;;;4874773;29;36697;-79
2023/06/28 08:54:28;;;;;;;29.50;14.18;;;20.50;99.90;;;;;;4856687;29;37702;-80
2023/06/28 08:56:58;;;;;;;25.35;12.90;;;20.30;99.90;;;;;;4859001;29;38298;-78
2023/06/28 08:59:24;;;;;;;21.25;12.70;;;20.20;99.90;;;;;;4860081;29;38339;-80
2023/06/28 09:01:55;;;;;;;19.63;11.65;;;20.40;99.90;;;;;;4854101;29;37081;-79
2023/06/28 09:04:23;;;;;;;24.42;12.23;;;20.60;99.90;;;;;;4857972;29;36393;-77
2023/06/28 09:06:50;;;;;;;21.58;12.70;;;20.70;99.90;;;;;;4853146;29;37877;-79
2023/06/28 09:09:18;;;;;;;24.50;13.70;;;20.90;99.90;;;;;;4852279;29;36108;-78
2023/06/28 09:11:45;;;;;;;18.83;12.23;;;21.10;99.90;;;;;;4856065;29;37516;-79
2023/06/28 09:14:14;;;;;;;28.88;14.30;;;21.00;99.90;;;;;;4857808;29;37521;-78
2023/06/28 09:16:40;;;;;;;26.92;13.13;;;21.30;99.90;;;;;;4856690;29;39276;-79
2023/06/28 09:19:07;;;;;;;20.35;11.88;;;21.40;99.90;;;;;;4858167;29;38280;-79
2023/06/28 09:21:34;;;;;;;21.08;13.52;;;21.20;99.90;;;;;;4872718;29;38286;-79
2023/06/28 09:24:00;;;;;;;21.15;13.05;;;21.20;99.90;;;;;;4857522;29;36361;-79
2023/06/28 09:26:31;;;;;;;29.85;14.65;;;21.40;99.90;;;;;;4874917;29;37432;-78
2023/06/28 09:29:08;;;;;;;20.65;13.63;;;21.00;99.90;;;;;;4859262;29;37315;-80
2023/06/28 09:31:38;;;;;;;20.77;13.07;;;21.00;99.90;;;;;;4873084;29;47262;-78
2023/06/28 09:34:04;;;;;;;22.77;13.00;;;21.10;99.90;;;;;;4855720;29;36655;-80
2023/06/28 09:36:32;;;;;;;23.48;13.40;;;21.20;99.90;;;;;;4857591;29;36849;-78
2023/06/28 09:39:00;;;;;;;26.23;12.90;;;21.30;99.90;;;;;;4868301;29;37203;-79
2023/06/28 09:41:40;;;;;;;22.52;12.80;;;21.30;99.90;;;;;;4854038;29;36916;-82
2023/06/28 09:44:09;;;;;;;17.77;11.90;;;21.10;99.90;;;;;;4856764;29;37212;-83
2023/06/28 09:46:41;;;;;;;20.63;13.13;;;21.10;99.90;;;;;;4859714;29;38030;-81
2023/06/28 09:49:22;;;;;;;17.00;11.13;;;21.20;99.90;;;;;;4857360;29;38327;-80
2023/06/28 09:52:01;;;;;;;18.88;11.88;;;21.30;99.90;;;;;;4853321;29;37869;-81
2023/06/28 09:54:44;;;;;;;22.92;12.70;;;21.70;99.90;;;;;;4857401;29;37503;-80
2023/06/28 09:57:11;;;;;;;18.30;11.65;;;21.80;99.90;;;;;;4858370;29;37885;-80
2023/06/28 09:59:39;;;;;;;20.88;13.95;;;22.00;99.90;;;;;;4861502;29;38107;-81
2023/06/28 10:02:09;;;;;;;19.30;13.75;;;21.90;99.90;;;;;;4860967;29;37852;-80
2023/06/28 10:04:37;;;;;;;17.77;13.05;;;21.70;99.90;;;;;;4854855;29;36847;-80
2023/06/28 10:07:04;;;;;;;25.85;13.07;;;21.70;99.90;;;;;;4850263;29;37796;-80
2023/06/28 10:09:36;;;;;;;21.13;12.05;;;21.60;99.90;;;;;;4858575;29;36922;-80
2023/06/28 10:12:07;;;;;;;21.03;13.00;;;21.60;99.90;;;;;;4856396;29;37720;-80
2023/06/28 10:14:38;;;;;;;22.23;13.50;;;21.70;99.90;;;;;;4858648;29;36773;-81
2023/06/28 10:17:05;;;;;;;28.20;14.10;;;21.70;99.90;;;;;;4877712;29;37641;-82
2023/06/28 10:19:33;;;;;;;22.88;13.13;;;21.60;99.90;;;;;;4862595;29;38928;-81
2023/06/28 10:22:00;;;;;;;22.17;12.90;;;21.30;99.90;;;;;;4857423;29;37214;-82
2023/06/28 10:24:31;;;;;;;20.30;11.80;;;21.10;99.90;;;;;;4848501;29;37391;-78
2023/06/28 10:27:02;;;;;;;22.35;13.20;;;21.00;99.90;;;;;;4856406;29;38124;-78
2023/06/28 10:29:30;;;;;;;22.75;13.02;;;20.80;99.90;;;;;;4854802;29;47133;-79
2023/06/28 10:31:59;;;;;;;21.75;12.73;;;20.70;99.90;;;;;;4851705;29;38410;-75
2023/06/28 10:34:27;;;;;;;21.67;13.50;;;20.70;99.90;;;;;;4856036;29;37113;-77
2023/06/28 10:36:56;;;;;;;20.95;11.45;;;20.70;99.90;;;;;;4858059;29;39531;-81
2023/06/28 10:39:22;;;;;;;21.45;12.60;;;20.80;99.90;;;;;;4858890;29;37715;-78
2023/06/28 10:41:58;;;;;;;20.10;11.93;;;21.00;99.90;;;;;;4861494;29;36984;-79
2023/06/28 10:44:24;;;;;;;25.05;12.02;;;21.30;99.90;;;;;;4856784;29;36542;-79
2023/06/28 10:47:11;;;;;;;25.23;12.30;;;21.40;99.90;;;;;;4875186;29;37703;-80
2023/06/28 10:49:40;;;;;;;20.25;12.68;;;21.60;99.90;;;;;;4874776;29;47531;-77
2023/06/28 10:52:14;;;;;;;25.05;13.40;;;21.40;99.90;;;;;;4861044;29;37284;-77
2023/06/28 10:54:40;;;;;;;23.80;13.45;;;21.30;99.90;;;;;;4860654;29;36660;-79
2023/06/28 10:57:10;;;;;;;25.58;14.05;;;21.20;99.90;;;;;;4860193;29;41737;-79
2023/06/28 10:59:40;;;;;;;25.23;13.65;;;21.10;99.90;;;;;;4857977;29;39014;-77
2023/06/28 11:02:06;;;;;;;25.13;13.82;;;21.00;99.90;;;;;;4860140;29;37095;-76
2023/06/28 11:04:32;;;;;;;28.63;15.05;;;20.90;99.90;;;;;;4858598;29;36949;-76
2023/06/28 11:07:15;;;;;;;17.77;12.48;;;20.80;99.90;;;;;;4860108;29;38418;-79
2023/06/28 11:10:14;;;;;;;20.95;12.82;;;20.80;99.90;;;;;;4857508;29;47232;-78
2023/06/28 11:12:40;;;;;;;21.13;14.25;;;20.80;99.90;;;;;;4858152;29;47457;-80
2023/06/28 11:15:13;;;;;;;23.02;13.57;;;20.80;99.90;;;;;;4857788;29;37404;-78
2023/06/28 11:17:39;;;;;;;23.05;13.68;;;20.80;99.90;;;;;;4857352;29;38129;-73
2023/06/28 11:20:07;;;;;;;23.00;14.15;;;20.90;99.90;;;;;;4852073;29;37261;-78
2023/06/28 11:22:52;;;;;;;22.52;12.15;;;21.00;99.90;;;;;;4872382;29;47483;-80
2023/06/28 11:25:28;;;;;;;22.00;13.10;;;21.20;99.90;;;;;;4861426;29;39162;-79
2023/06/28 11:27:57;;;;;;;20.63;12.93;;;21.30;99.90;;;;;;4866004;29;37962;-80
2023/06/28 11:30:47;;;;;;;21.15;12.75;;;21.40;99.90;;;;;;4863543;29;38088;-80
2023/06/28 11:33:14;;;;;;;22.20;13.35;;;21.60;99.90;;;;;;4856638;29;36872;-78
2023/06/28 11:35:41;;;;;;;26.23;12.45;;;21.60;99.90;;;;;;4860833;29;36368;-80
2023/06/28 11:38:08;;;;;;;27.90;13.63;;;21.70;99.90;;;;;;4863683;29;39183;-79
2023/06/28 11:40:35;;;;;;;22.05;12.55;;;21.80;99.90;;;;;;4856786;29;37524;-78
2023/06/28 11:43:01;;;;;;;20.60;12.85;;;21.80;99.90;;;;;;4855042;29;37863;-77
2023/06/28 11:45:28;;;;;;;23.15;12.88;;;21.90;99.90;;;;;;4878356;29;36710;-78
2023/06/28 11:47:54;;;;;;;21.38;12.82;;;21.90;99.90;;;;;;4861996;29;37711;-77
2023/06/28 11:50:20;;;;;;;21.52;12.00;;;22.00;99.90;;;;;;4855483;29;36932;-79
2023/06/28 11:52:47;;;;;;;20.08;12.15;;;22.10;99.90;;;;;;4861407;29;37633;-77
2023/06/28 11:55:16;;;;;;;21.25;12.48;;;22.20;99.90;;;;;;4854133;29;37214;-78
2023/06/28 11:57:47;;;;;;;21.85;12.00;;;22.30;99.90;;;;;;4871668;29;39316;-77
2023/06/28 12:00:15;;;;;;;17.45;11.30;;;22.50;99.90;;;;;;4879620;29;38759;-77
2023/06/28 12:02:49;;;;;;;17.83;11.70;;;22.60;99.90;;;;;;4875351;29;37403;-79
2023/06/28 12:05:21;;;;;;;17.48;11.00;;;22.60;99.90;;;;;;4862349;29;36860;-79
2023/06/28 12:07:47;;;;;;;23.02;11.32;;;22.60;99.90;;;;;;4860027;29;37640;-78
2023/06/28 12:10:16;;;;;;;19.83;12.18;;;22.60;99.90;;;;;;4859864;29;39248;-78
2023/06/28 12:12:42;;;;;;;22.23;11.70;;;22.30;99.90;;;;;;4861774;29;37097;-77
2023/06/28 12:15:22;;;;;;;21.08;11.90;;;22.50;99.90;;;;;;4861488;29;37019;-78
2023/06/28 12:17:50;;;;;;;21.95;11.98;;;22.60;99.90;;;;;;4862157;29;38026;-80
2023/06/28 12:20:18;;;;;;;17.60;10.93;;;22.80;99.90;;;;;;4859728;29;37989;-80
2023/06/28 12:22:45;;;;;;;21.42;11.32;;;22.90;99.90;;;;;;4857864;29;37138;-80
2023/06/28 12:25:12;;;;;;;17.75;10.93;;;23.00;99.90;;;;;;4860518;29;37169;-80
2023/06/28 12:27:39;;;;;;;20.38;10.68;;;23.10;99.90;;;;;;4859310;29;39733;-79
2023/06/28 12:30:09;;;;;;;21.17;10.45;;;23.20;99.90;;;;;;4861468;29;39680;-80
2023/06/28 12:32:38;;;;;;;18.67;10.07;;;23.20;99.90;;;;;;4873079;29;48327;-80
2023/06/28 12:35:05;;;;;;;15.52;9.32;;;23.30;99.90;;;;;;4861578;29;38656;-81